RJCC/CTS METAR and TAF weather

Enter ICAO airport designator
Station Type Date Time Source
RJCC METAR 2024/05/28 22:00 UTC NOAA

RJCC 282200Z 33018KT 9999 FEW010 BKN020 11/07 Q1003


Station Type Date Time Source
RJCC Decoded METAR 2024/05/28 22:00 UTC NOAA

Chitose Ab, Japan (RJCC) 42-48N 141-40E 30M
May 28, 2024 - 06:00 PM EDT / 2024.05.28 2200 UTC
Wind: from the NNW (330 degrees) at 21 MPH (18 KT):0
Visibility: greater than 7 mile(s):0
Sky conditions: mostly cloudy
Temperature: 51 F (11 C)
Dew Point: 44 F (7 C)
Relative Humidity: 76%
Pressure (altimeter): 29.62 in. Hg (1003 hPa)
ob: RJCC 282200Z 33018KT 9999 FEW010 BKN020 11/07 Q1003
cycle: 22

Station Type Date Time Source
RJCC TAF 2024/05/28 18:28 UTC NOAA